sensor_id;sensor_type;location;lat;lon;timestamp;P1;durP1;ratioP1;P2;durP2;ratioP2
10839;SDS011;5473;42.706;23.328;2022-10-26T00:01:03;0.30;;;0.30;;
10839;SDS011;5473;42.706;23.328;2022-10-26T00:03:33;0.30;;;0.30;;
10839;SDS011;5473;42.706;23.328;2022-10-26T00:06:01;0.30;;;0.30;;
10839;SDS011;5473;42.706;23.328;2022-10-26T00:08:29;0.30;;;0.30;;
10839;SDS011;5473;42.706;23.328;2022-10-26T00:10:58;0.40;;;0.40;;
10839;SDS011;5473;42.706;23.328;2022-10-26T00:13:24;0.40;;;0.40;;
10839;SDS011;5473;42.706;23.328;2022-10-26T00:15:51;0.30;;;0.30;;
10839;SDS011;5473;42.706;23.328;2022-10-26T00:18:18;0.30;;;0.30;;
10839;SDS011;5473;42.706;23.328;2022-10-26T00:20:45;0.30;;;0.30;;
10839;SDS011;5473;42.706;23.328;2022-10-26T00:23:11;0.30;;;0.30;;
10839;SDS011;5473;42.706;23.328;2022-10-26T00:25:38;0.40;;;0.40;;
10839;SDS011;5473;42.706;23.328;2022-10-26T00:28:06;0.37;;;0.37;;
10839;SDS011;5473;42.706;23.328;2022-10-26T00:30:33;0.40;;;0.40;;
10839;SDS011;5473;42.706;23.328;2022-10-26T00:33:00;0.30;;;0.30;;
10839;SDS011;5473;42.706;23.328;2022-10-26T00:35:27;0.30;;;0.30;;
10839;SDS011;5473;42.706;23.328;2022-10-26T00:37:54;0.30;;;0.30;;
10839;SDS011;5473;42.706;23.328;2022-10-26T00:40:21;0.30;;;0.30;;
10839;SDS011;5473;42.706;23.328;2022-10-26T00:42:53;0.30;;;0.30;;
10839;SDS011;5473;42.706;23.328;2022-10-26T00:45:22;0.40;;;0.40;;
10839;SDS011;5473;42.706;23.328;2022-10-26T00:47:49;0.40;;;0.40;;
10839;SDS011;5473;42.706;23.328;2022-10-26T00:50:20;0.23;;;0.23;;
10839;SDS011;5473;42.706;23.328;2022-10-26T00:52:50;0.40;;;0.40;;
10839;SDS011;5473;42.706;23.328;2022-10-26T00:55:18;0.40;;;0.40;;
10839;SDS011;5473;42.706;23.328;2022-10-26T00:57:47;0.40;;;0.40;;
10839;SDS011;5473;42.706;23.328;2022-10-26T01:00:14;0.30;;;0.30;;
10839;SDS011;5473;42.706;23.328;2022-10-26T01:02:43;0.40;;;0.40;;
10839;SDS011;5473;42.706;23.328;2022-10-26T01:05:12;0.40;;;0.40;;
10839;SDS011;5473;42.706;23.328;2022-10-26T01:07:40;0.30;;;0.30;;
10839;SDS011;5473;42.706;23.328;2022-10-26T01:10:09;0.40;;;0.40;;
10839;SDS011;5473;42.706;23.328;2022-10-26T01:12:38;0.40;;;0.40;;
10839;SDS011;5473;42.706;23.328;2022-10-26T01:15:05;0.30;;;0.30;;
10839;SDS011;5473;42.706;23.328;2022-10-26T01:17:36;0.40;;;0.40;;
10839;SDS011;5473;42.706;23.328;2022-10-26T01:20:20;0.40;;;0.40;;
10839;SDS011;5473;42.706;23.328;2022-10-26T01:23:05;0.30;;;0.30;;
10839;SDS011;5473;42.706;23.328;2022-10-26T01:25:39;0.30;;;0.30;;
10839;SDS011;5473;42.706;23.328;2022-10-26T01:28:19;0.40;;;0.40;;
10839;SDS011;5473;42.706;23.328;2022-10-26T01:31:03;0.30;;;0.30;;
10839;SDS011;5473;42.706;23.328;2022-10-26T01:33:37;0.40;;;0.40;;
10839;SDS011;5473;42.706;23.328;2022-10-26T01:36:10;0.33;;;0.33;;
10839;SDS011;5473;42.706;23.328;2022-10-26T01:38:42;0.40;;;0.40;;
10839;SDS011;5473;42.706;23.328;2022-10-26T01:41:19;0.40;;;0.40;;
10839;SDS011;5473;42.706;23.328;2022-10-26T01:43:52;0.40;;;0.40;;
10839;SDS011;5473;42.706;23.328;2022-10-26T01:46:23;0.40;;;0.40;;
10839;SDS011;5473;42.706;23.328;2022-10-26T01:48:53;0.40;;;0.40;;
10839;SDS011;5473;42.706;23.328;2022-10-26T01:51:24;0.40;;;0.40;;
10839;SDS011;5473;42.706;23.328;2022-10-26T01:53:53;0.40;;;0.40;;
10839;SDS011;5473;42.706;23.328;2022-10-26T01:56:20;0.40;;;0.40;;
10839;SDS011;5473;42.706;23.328;2022-10-26T01:58:55;0.40;;;0.40;;
10839;SDS011;5473;42.706;23.328;2022-10-26T02:01:42;0.37;;;0.37;;
10839;SDS011;5473;42.706;23.328;2022-10-26T02:04:31;0.30;;;0.30;;
10839;SDS011;5473;42.706;23.328;2022-10-26T02:07:09;0.40;;;0.40;;
10839;SDS011;5473;42.706;23.328;2022-10-26T02:09:45;0.40;;;0.40;;
10839;SDS011;5473;42.706;23.328;2022-10-26T02:12:24;0.40;;;0.40;;
10839;SDS011;5473;42.706;23.328;2022-10-26T02:15:00;0.40;;;0.40;;
10839;SDS011;5473;42.706;23.328;2022-10-26T02:17:34;0.40;;;0.40;;
10839;SDS011;5473;42.706;23.328;2022-10-26T02:20:08;0.30;;;0.30;;
10839;SDS011;5473;42.706;23.328;2022-10-26T02:22:42;0.40;;;0.40;;
10839;SDS011;5473;42.706;23.328;2022-10-26T02:25:14;0.30;;;0.30;;
10839;SDS011;5473;42.706;23.328;2022-10-26T02:27:46;0.40;;;0.40;;
10839;SDS011;5473;42.706;23.328;2022-10-26T02:30:16;0.40;;;0.40;;
10839;SDS011;5473;42.706;23.328;2022-10-26T02:32:46;0.30;;;0.30;;
10839;SDS011;5473;42.706;23.328;2022-10-26T02:35:17;0.47;;;0.47;;
10839;SDS011;5473;42.706;23.328;2022-10-26T02:37:47;0.40;;;0.40;;
10839;SDS011;5473;42.706;23.328;2022-10-26T02:40:18;0.30;;;0.30;;
10839;SDS011;5473;42.706;23.328;2022-10-26T02:42:47;0.40;;;0.40;;
10839;SDS011;5473;42.706;23.328;2022-10-26T02:45:18;0.40;;;0.40;;
10839;SDS011;5473;42.706;23.328;2022-10-26T02:47:50;0.40;;;0.40;;
10839;SDS011;5473;42.706;23.328;2022-10-26T02:50:17;0.40;;;0.40;;
10839;SDS011;5473;42.706;23.328;2022-10-26T02:52:47;0.40;;;0.40;;
10839;SDS011;5473;42.706;23.328;2022-10-26T02:55:19;0.40;;;0.40;;
10839;SDS011;5473;42.706;23.328;2022-10-26T02:57:51;0.30;;;0.30;;
10839;SDS011;5473;42.706;23.328;2022-10-26T03:00:21;0.30;;;0.30;;
10839;SDS011;5473;42.706;23.328;2022-10-26T03:02:51;0.40;;;0.40;;
10839;SDS011;5473;42.706;23.328;2022-10-26T03:05:22;0.40;;;0.40;;
10839;SDS011;5473;42.706;23.328;2022-10-26T03:07:51;0.40;;;0.40;;
10839;SDS011;5473;42.706;23.328;2022-10-26T03:10:18;0.40;;;0.40;;
10839;SDS011;5473;42.706;23.328;2022-10-26T03:12:46;0.40;;;0.40;;
10839;SDS011;5473;42.706;23.328;2022-10-26T03:15:12;0.40;;;0.40;;
10839;SDS011;5473;42.706;23.328;2022-10-26T03:17:39;0.40;;;0.40;;
10839;SDS011;5473;42.706;23.328;2022-10-26T03:20:08;0.40;;;0.40;;
10839;SDS011;5473;42.706;23.328;2022-10-26T03:22:36;0.40;;;0.40;;
10839;SDS011;5473;42.706;23.328;2022-10-26T03:25:03;0.40;;;0.40;;
10839;SDS011;5473;42.706;23.328;2022-10-26T03:27:30;0.40;;;0.40;;
10839;SDS011;5473;42.706;23.328;2022-10-26T03:29:57;0.40;;;0.40;;
10839;SDS011;5473;42.706;23.328;2022-10-26T03:32:23;0.40;;;0.40;;
10839;SDS011;5473;42.706;23.328;2022-10-26T03:34:50;0.47;;;0.47;;
10839;SDS011;5473;42.706;23.328;2022-10-26T03:37:18;0.40;;;0.40;;
10839;SDS011;5473;42.706;23.328;2022-10-26T03:39:45;0.40;;;0.40;;
10839;SDS011;5473;42.706;23.328;2022-10-26T03:42:12;0.47;;;0.47;;
10839;SDS011;5473;42.706;23.328;2022-10-26T03:44:38;0.47;;;0.47;;
10839;SDS011;5473;42.706;23.328;2022-10-26T03:47:05;0.30;;;0.30;;
10839;SDS011;5473;42.706;23.328;2022-10-26T03:49:32;0.50;;;0.50;;
10839;SDS011;5473;42.706;23.328;2022-10-26T03:52:00;0.40;;;0.40;;
10839;SDS011;5473;42.706;23.328;2022-10-26T03:54:28;0.40;;;0.40;;
10839;SDS011;5473;42.706;23.328;2022-10-26T03:56:54;0.40;;;0.40;;
10839;SDS011;5473;42.706;23.328;2022-10-26T03:59:21;0.40;;;0.40;;
10839;SDS011;5473;42.706;23.328;2022-10-26T04:01:48;0.40;;;0.40;;
10839;SDS011;5473;42.706;23.328;2022-10-26T04:04:15;0.40;;;0.40;;
10839;SDS011;5473;42.706;23.328;2022-10-26T04:06:41;0.40;;;0.40;;
10839;SDS011;5473;42.706;23.328;2022-10-26T04:09:08;0.40;;;0.40;;
10839;SDS011;5473;42.706;23.328;2022-10-26T04:11:36;0.40;;;0.40;;
10839;SDS011;5473;42.706;23.328;2022-10-26T04:14:03;0.40;;;0.40;;
10839;SDS011;5473;42.706;23.328;2022-10-26T04:16:30;0.40;;;0.40;;
10839;SDS011;5473;42.706;23.328;2022-10-26T04:18:56;0.40;;;0.40;;
10839;SDS011;5473;42.706;23.328;2022-10-26T04:21:23;0.40;;;0.40;;
10839;SDS011;5473;42.706;23.328;2022-10-26T04:23:50;0.40;;;0.40;;
10839;SDS011;5473;42.706;23.328;2022-10-26T04:26:16;0.43;;;0.43;;
10839;SDS011;5473;42.706;23.328;2022-10-26T04:28:45;0.47;;;0.47;;
10839;SDS011;5473;42.706;23.328;2022-10-26T04:31:11;0.30;;;0.30;;
10839;SDS011;5473;42.706;23.328;2022-10-26T04:33:38;0.40;;;0.40;;
10839;SDS011;5473;42.706;23.328;2022-10-26T04:36:05;0.40;;;0.40;;
10839;SDS011;5473;42.706;23.328;2022-10-26T04:38:33;0.40;;;0.40;;
10839;SDS011;5473;42.706;23.328;2022-10-26T04:40:59;0.40;;;0.40;;
10839;SDS011;5473;42.706;23.328;2022-10-26T04:43:26;0.40;;;0.40;;
10839;SDS011;5473;42.706;23.328;2022-10-26T04:45:55;0.40;;;0.40;;
10839;SDS011;5473;42.706;23.328;2022-10-26T04:48:22;0.30;;;0.30;;
10839;SDS011;5473;42.706;23.328;2022-10-26T04:50:49;0.40;;;0.40;;
10839;SDS011;5473;42.706;23.328;2022-10-26T04:53:16;0.40;;;0.40;;
10839;SDS011;5473;42.706;23.328;2022-10-26T04:55:42;0.40;;;0.40;;
10839;SDS011;5473;42.706;23.328;2022-10-26T04:58:09;0.40;;;0.40;;
10839;SDS011;5473;42.706;23.328;2022-10-26T05:00:36;0.40;;;0.40;;
10839;SDS011;5473;42.706;23.328;2022-10-26T05:03:05;0.40;;;0.40;;
10839;SDS011;5473;42.706;23.328;2022-10-26T05:05:33;0.40;;;0.40;;
10839;SDS011;5473;42.706;23.328;2022-10-26T05:08:01;0.40;;;0.40;;
10839;SDS011;5473;42.706;23.328;2022-10-26T05:10:28;0.30;;;0.30;;
10839;SDS011;5473;42.706;23.328;2022-10-26T05:12:55;0.40;;;0.40;;
10839;SDS011;5473;42.706;23.328;2022-10-26T05:15:24;0.40;;;0.40;;
10839;SDS011;5473;42.706;23.328;2022-10-26T05:17:54;0.40;;;0.40;;
10839;SDS011;5473;42.706;23.328;2022-10-26T05:20:23;0.30;;;0.30;;
10839;SDS011;5473;42.706;23.328;2022-10-26T05:22:53;0.30;;;0.30;;
10839;SDS011;5473;42.706;23.328;2022-10-26T05:25:20;0.30;;;0.30;;
10839;SDS011;5473;42.706;23.328;2022-10-26T05:27:47;0.30;;;0.30;;
10839;SDS011;5473;42.706;23.328;2022-10-26T05:30:14;0.30;;;0.30;;
10839;SDS011;5473;42.706;23.328;2022-10-26T05:32:41;0.30;;;0.30;;
10839;SDS011;5473;42.706;23.328;2022-10-26T05:35:08;0.30;;;0.30;;
10839;SDS011;5473;42.706;23.328;2022-10-26T05:37:36;0.30;;;0.30;;
10839;SDS011;5473;42.706;23.328;2022-10-26T05:40:03;0.30;;;0.30;;
10839;SDS011;5473;42.706;23.328;2022-10-26T05:42:30;0.30;;;0.30;;
10839;SDS011;5473;42.706;23.328;2022-10-26T05:44:57;0.40;;;0.40;;
10839;SDS011;5473;42.706;23.328;2022-10-26T05:47:24;0.30;;;0.30;;
10839;SDS011;5473;42.706;23.328;2022-10-26T05:49:50;0.30;;;0.30;;
10839;SDS011;5473;42.706;23.328;2022-10-26T05:52:17;0.30;;;0.30;;
10839;SDS011;5473;42.706;23.328;2022-10-26T05:54:45;0.30;;;0.30;;
10839;SDS011;5473;42.706;23.328;2022-10-26T05:57:12;0.30;;;0.30;;
10839;SDS011;5473;42.706;23.328;2022-10-26T05:59:39;0.40;;;0.40;;
10839;SDS011;5473;42.706;23.328;2022-10-26T06:02:08;0.40;;;0.40;;
10839;SDS011;5473;42.706;23.328;2022-10-26T06:04:44;0.30;;;0.30;;
10839;SDS011;5473;42.706;23.328;2022-10-26T06:07:13;0.30;;;0.30;;
10839;SDS011;5473;42.706;23.328;2022-10-26T06:09:42;0.30;;;0.30;;
10839;SDS011;5473;42.706;23.328;2022-10-26T06:12:12;0.30;;;0.30;;
10839;SDS011;5473;42.706;23.328;2022-10-26T06:14:40;0.30;;;0.30;;
10839;SDS011;5473;42.706;23.328;2022-10-26T06:17:14;0.30;;;0.30;;
10839;SDS011;5473;42.706;23.328;2022-10-26T06:19:53;0.30;;;0.30;;
10839;SDS011;5473;42.706;23.328;2022-10-26T06:22:44;0.33;;;0.33;;
10839;SDS011;5473;42.706;23.328;2022-10-26T06:25:25;0.30;;;0.30;;
10839;SDS011;5473;42.706;23.328;2022-10-26T06:28:02;0.30;;;0.30;;
10839;SDS011;5473;42.706;23.328;2022-10-26T06:30:38;0.30;;;0.30;;
10839;SDS011;5473;42.706;23.328;2022-10-26T06:33:06;0.30;;;0.30;;
10839;SDS011;5473;42.706;23.328;2022-10-26T06:35:35;0.20;;;0.20;;
10839;SDS011;5473;42.706;23.328;2022-10-26T06:38:13;0.20;;;0.20;;
10839;SDS011;5473;42.706;23.328;2022-10-26T06:40:44;0.20;;;0.20;;
10839;SDS011;5473;42.706;23.328;2022-10-26T06:43:18;0.10;;;0.10;;
10839;SDS011;5473;42.706;23.328;2022-10-26T06:45:51;0.10;;;0.10;;
10839;SDS011;5473;42.706;23.328;2022-10-26T06:48:24;0.10;;;0.10;;
10839;SDS011;5473;42.706;23.328;2022-10-26T06:50:54;0.10;;;0.10;;
10839;SDS011;5473;42.706;23.328;2022-10-26T06:53:23;0.10;;;0.10;;
10839;SDS011;5473;42.706;23.328;2022-10-26T06:55:56;0.10;;;0.10;;
10839;SDS011;5473;42.706;23.328;2022-10-26T06:58:26;0.10;;;0.10;;
10839;SDS011;5473;42.706;23.328;2022-10-26T07:00:56;0.10;;;0.10;;
10839;SDS011;5473;42.706;23.328;2022-10-26T07:03:23;0.10;;;0.10;;
10839;SDS011;5473;42.706;23.328;2022-10-26T07:05:50;0.10;;;0.10;;
10839;SDS011;5473;42.706;23.328;2022-10-26T07:08:17;0.10;;;0.10;;
10839;SDS011;5473;42.706;23.328;2022-10-26T07:10:44;0.10;;;0.10;;
10839;SDS011;5473;42.706;23.328;2022-10-26T07:13:11;0.10;;;0.10;;
10839;SDS011;5473;42.706;23.328;2022-10-26T07:15:40;0.10;;;0.10;;
10839;SDS011;5473;42.706;23.328;2022-10-26T07:18:08;0.10;;;0.10;;
10839;SDS011;5473;42.706;23.328;2022-10-26T07:20:35;0.10;;;0.10;;
10839;SDS011;5473;42.706;23.328;2022-10-26T07:23:04;0.10;;;0.10;;
10839;SDS011;5473;42.706;23.328;2022-10-26T07:25:32;0.10;;;0.10;;
10839;SDS011;5473;42.706;23.328;2022-10-26T07:28:03;0.10;;;0.10;;
10839;SDS011;5473;42.706;23.328;2022-10-26T07:30:29;0.00;;;0.00;;
10839;SDS011;5473;42.706;23.328;2022-10-26T07:33:01;0.10;;;0.10;;
10839;SDS011;5473;42.706;23.328;2022-10-26T07:35:29;0.00;;;0.00;;
10839;SDS011;5473;42.706;23.328;2022-10-26T07:37:56;0.00;;;0.00;;
10839;SDS011;5473;42.706;23.328;2022-10-26T07:40:23;0.10;;;0.10;;
10839;SDS011;5473;42.706;23.328;2022-10-26T07:42:51;0.00;;;0.00;;
10839;SDS011;5473;42.706;23.328;2022-10-26T07:45:18;0.00;;;0.00;;
10839;SDS011;5473;42.706;23.328;2022-10-26T07:47:44;0.00;;;0.00;;
10839;SDS011;5473;42.706;23.328;2022-10-26T07:50:13;0.00;;;0.00;;
10839;SDS011;5473;42.706;23.328;2022-10-26T07:52:40;0.00;;;0.00;;
10839;SDS011;5473;42.706;23.328;2022-10-26T07:55:07;0.00;;;0.00;;
10839;SDS011;5473;42.706;23.328;2022-10-26T07:57:34;0.00;;;0.00;;
10839;SDS011;5473;42.706;23.328;2022-10-26T08:00:01;0.00;;;0.00;;
10839;SDS011;5473;42.706;23.328;2022-10-26T08:02:29;0.00;;;0.00;;
10839;SDS011;5473;42.706;23.328;2022-10-26T08:04:56;0.00;;;0.00;;
10839;SDS011;5473;42.706;23.328;2022-10-26T08:07:24;0.00;;;0.00;;
10839;SDS011;5473;42.706;23.328;2022-10-26T08:09:51;0.00;;;0.00;;
10839;SDS011;5473;42.706;23.328;2022-10-26T08:12:18;0.00;;;0.00;;
10839;SDS011;5473;42.706;23.328;2022-10-26T08:14:45;0.00;;;0.00;;
10839;SDS011;5473;42.706;23.328;2022-10-26T08:17:11;0.00;;;0.00;;
10839;SDS011;5473;42.706;23.328;2022-10-26T08:19:38;0.00;;;0.00;;
10839;SDS011;5473;42.706;23.328;2022-10-26T08:22:05;0.00;;;0.00;;
10839;SDS011;5473;42.706;23.328;2022-10-26T08:24:33;0.00;;;0.00;;
10839;SDS011;5473;42.706;23.328;2022-10-26T08:27:00;0.00;;;0.00;;
10839;SDS011;5473;42.706;23.328;2022-10-26T08:29:27;0.00;;;0.00;;
10839;SDS011;5473;42.706;23.328;2022-10-26T08:31:53;0.00;;;0.00;;
10839;SDS011;5473;42.706;23.328;2022-10-26T08:34:21;0.00;;;0.00;;
10839;SDS011;5473;42.706;23.328;2022-10-26T08:36:47;0.00;;;0.00;;
10839;SDS011;5473;42.706;23.328;2022-10-26T08:39:14;0.00;;;0.00;;
10839;SDS011;5473;42.706;23.328;2022-10-26T08:41:43;0.00;;;0.00;;
10839;SDS011;5473;42.706;23.328;2022-10-26T08:44:19;0.00;;;0.00;;
10839;SDS011;5473;42.706;23.328;2022-10-26T08:46:52;0.00;;;0.00;;
10839;SDS011;5473;42.706;23.328;2022-10-26T08:49:24;0.00;;;0.00;;
10839;SDS011;5473;42.706;23.328;2022-10-26T08:51:55;0.00;;;0.00;;
10839;SDS011;5473;42.706;23.328;2022-10-26T08:54:28;0.00;;;0.00;;
10839;SDS011;5473;42.706;23.328;2022-10-26T08:57:01;0.00;;;0.00;;
10839;SDS011;5473;42.706;23.328;2022-10-26T08:59:37;0.00;;;0.00;;
10839;SDS011;5473;42.706;23.328;2022-10-26T09:02:10;0.00;;;0.00;;
10839;SDS011;5473;42.706;23.328;2022-10-26T09:04:38;0.00;;;0.00;;
10839;SDS011;5473;42.706;23.328;2022-10-26T09:07:07;0.00;;;0.00;;
10839;SDS011;5473;42.706;23.328;2022-10-26T09:09:45;0.00;;;0.00;;
10839;SDS011;5473;42.706;23.328;2022-10-26T09:12:24;0.00;;;0.00;;
10839;SDS011;5473;42.706;23.328;2022-10-26T09:15:04;0.00;;;0.00;;
10839;SDS011;5473;42.706;23.328;2022-10-26T09:17:41;0.00;;;0.00;;
10839;SDS011;5473;42.706;23.328;2022-10-26T09:20:27;0.00;;;0.00;;
10839;SDS011;5473;42.706;23.328;2022-10-26T09:23:06;0.00;;;0.00;;
10839;SDS011;5473;42.706;23.328;2022-10-26T09:25:44;0.00;;;0.00;;
10839;SDS011;5473;42.706;23.328;2022-10-26T09:28:18;0.00;;;0.00;;
10839;SDS011;5473;42.706;23.328;2022-10-26T09:30:46;0.00;;;0.00;;
10839;SDS011;5473;42.706;23.328;2022-10-26T09:33:14;0.00;;;0.00;;
10839;SDS011;5473;42.706;23.328;2022-10-26T09:35:43;0.00;;;0.00;;
10839;SDS011;5473;42.706;23.328;2022-10-26T09:38:15;0.00;;;0.00;;
10839;SDS011;5473;42.706;23.328;2022-10-26T09:40:51;0.00;;;0.00;;
10839;SDS011;5473;42.706;23.328;2022-10-26T09:43:27;0.00;;;0.00;;
10839;SDS011;5473;42.706;23.328;2022-10-26T09:45:57;0.00;;;0.00;;
10839;SDS011;5473;42.706;23.328;2022-10-26T09:48:26;0.00;;;0.00;;
10839;SDS011;5473;42.706;23.328;2022-10-26T09:50:58;0.00;;;0.00;;
10839;SDS011;5473;42.706;23.328;2022-10-26T09:53:25;0.00;;;0.00;;
10839;SDS011;5473;42.706;23.328;2022-10-26T09:55:55;0.00;;;0.00;;
10839;SDS011;5473;42.706;23.328;2022-10-26T09:58:29;0.00;;;0.00;;
10839;SDS011;5473;42.706;23.328;2022-10-26T10:00:58;0.00;;;0.00;;
10839;SDS011;5473;42.706;23.328;2022-10-26T10:03:26;0.00;;;0.00;;
10839;SDS011;5473;42.706;23.328;2022-10-26T10:05:55;0.00;;;0.00;;
10839;SDS011;5473;42.706;23.328;2022-10-26T10:08:41;0.00;;;0.00;;
10839;SDS011;5473;42.706;23.328;2022-10-26T10:11:09;0.00;;;0.00;;
10839;SDS011;5473;42.706;23.328;2022-10-26T10:13:39;0.00;;;0.00;;
10839;SDS011;5473;42.706;23.328;2022-10-26T10:19:20;0.00;;;0.00;;
10839;SDS011;5473;42.706;23.328;2022-10-26T10:21:49;0.00;;;0.00;;
10839;SDS011;5473;42.706;23.328;2022-10-26T10:24:26;0.00;;;0.00;;
10839;SDS011;5473;42.706;23.328;2022-10-26T10:26:55;0.00;;;0.00;;
10839;SDS011;5473;42.706;23.328;2022-10-26T10:29:28;0.00;;;0.00;;
10839;SDS011;5473;42.706;23.328;2022-10-26T10:31:57;0.00;;;0.00;;
10839;SDS011;5473;42.706;23.328;2022-10-26T10:34:25;0.00;;;0.00;;
10839;SDS011;5473;42.706;23.328;2022-10-26T10:36:52;0.00;;;0.00;;
10839;SDS011;5473;42.706;23.328;2022-10-26T10:39:31;0.00;;;0.00;;
10839;SDS011;5473;42.706;23.328;2022-10-26T10:42:01;0.00;;;0.00;;
10839;SDS011;5473;42.706;23.328;2022-10-26T10:44:30;0.00;;;0.00;;
10839;SDS011;5473;42.706;23.328;2022-10-26T10:46:59;0.00;;;0.00;;
10839;SDS011;5473;42.706;23.328;2022-10-26T10:49:27;0.00;;;0.00;;
10839;SDS011;5473;42.706;23.328;2022-10-26T10:51:55;0.00;;;0.00;;
10839;SDS011;5473;42.706;23.328;2022-10-26T10:54:24;0.00;;;0.00;;
10839;SDS011;5473;42.706;23.328;2022-10-26T10:56:54;0.00;;;0.00;;
10839;SDS011;5473;42.706;23.328;2022-10-26T10:59:50;0.00;;;0.00;;
10839;SDS011;5473;42.706;23.328;2022-10-26T11:02:31;0.00;;;0.00;;
10839;SDS011;5473;42.706;23.328;2022-10-26T11:05:21;0.00;;;0.00;;
10839;SDS011;5473;42.706;23.328;2022-10-26T11:08:00;0.00;;;0.00;;
10839;SDS011;5473;42.706;23.328;2022-10-26T11:10:32;0.00;;;0.00;;
10839;SDS011;5473;42.706;23.328;2022-10-26T11:13:04;0.00;;;0.00;;
10839;SDS011;5473;42.706;23.328;2022-10-26T11:15:40;0.00;;;0.00;;
10839;SDS011;5473;42.706;23.328;2022-10-26T11:18:11;0.00;;;0.00;;
10839;SDS011;5473;42.706;23.328;2022-10-26T11:20:44;0.10;;;0.10;;
10839;SDS011;5473;42.706;23.328;2022-10-26T11:23:15;0.00;;;0.00;;
10839;SDS011;5473;42.706;23.328;2022-10-26T11:25:47;0.10;;;0.10;;
10839;SDS011;5473;42.706;23.328;2022-10-26T11:28:19;0.00;;;0.00;;
10839;SDS011;5473;42.706;23.328;2022-10-26T11:30:56;0.00;;;0.00;;
10839;SDS011;5473;42.706;23.328;2022-10-26T11:33:29;0.00;;;0.00;;
10839;SDS011;5473;42.706;23.328;2022-10-26T11:36:02;0.00;;;0.00;;
10839;SDS011;5473;42.706;23.328;2022-10-26T11:38:32;0.00;;;0.00;;
10839;SDS011;5473;42.706;23.328;2022-10-26T11:41:07;0.00;;;0.00;;
10839;SDS011;5473;42.706;23.328;2022-10-26T11:43:41;0.00;;;0.00;;
10839;SDS011;5473;42.706;23.328;2022-10-26T11:46:12;0.08;;;0.08;;
10839;SDS011;5473;42.706;23.328;2022-10-26T11:48:44;0.00;;;0.00;;
10839;SDS011;5473;42.706;23.328;2022-10-26T11:51:17;0.00;;;0.00;;
10839;SDS011;5473;42.706;23.328;2022-10-26T11:54:00;0.00;;;0.00;;
10839;SDS011;5473;42.706;23.328;2022-10-26T11:56:35;0.00;;;0.00;;
10839;SDS011;5473;42.706;23.328;2022-10-26T11:59:05;0.00;;;0.00;;
10839;SDS011;5473;42.706;23.328;2022-10-26T12:01:41;0.00;;;0.00;;
10839;SDS011;5473;42.706;23.328;2022-10-26T12:04:11;0.00;;;0.00;;
10839;SDS011;5473;42.706;23.328;2022-10-26T12:06:39;0.00;;;0.00;;
10839;SDS011;5473;42.706;23.328;2022-10-26T12:09:07;0.00;;;0.00;;
10839;SDS011;5473;42.706;23.328;2022-10-26T12:11:42;0.00;;;0.00;;
10839;SDS011;5473;42.706;23.328;2022-10-26T12:14:14;0.00;;;0.00;;
10839;SDS011;5473;42.706;23.328;2022-10-26T12:16:49;0.00;;;0.00;;
10839;SDS011;5473;42.706;23.328;2022-10-26T12:19:23;0.10;;;0.10;;
10839;SDS011;5473;42.706;23.328;2022-10-26T12:21:54;0.00;;;0.00;;
10839;SDS011;5473;42.706;23.328;2022-10-26T12:24:28;0.10;;;0.10;;
10839;SDS011;5473;42.706;23.328;2022-10-26T12:27:00;0.00;;;0.00;;
10839;SDS011;5473;42.706;23.328;2022-10-26T12:29:34;0.10;;;0.10;;
10839;SDS011;5473;42.706;23.328;2022-10-26T12:41:25;0.10;;;0.10;;
10839;SDS011;5473;42.706;23.328;2022-10-26T12:44:01;0.10;;;0.10;;
10839;SDS011;5473;42.706;23.328;2022-10-26T12:46:49;0.10;;;0.10;;
10839;SDS011;5473;42.706;23.328;2022-10-26T12:52:25;0.10;;;0.10;;
10839;SDS011;5473;42.706;23.328;2022-10-26T12:55:01;0.10;;;0.10;;
10839;SDS011;5473;42.706;23.328;2022-10-26T12:57:46;0.10;;;0.10;;
10839;SDS011;5473;42.706;23.328;2022-10-26T13:00:21;0.10;;;0.10;;
10839;SDS011;5473;42.706;23.328;2022-10-26T13:02:53;0.10;;;0.10;;
10839;SDS011;5473;42.706;23.328;2022-10-26T13:05:40;0.10;;;0.10;;
10839;SDS011;5473;42.706;23.328;2022-10-26T13:08:27;0.10;;;0.10;;
10839;SDS011;5473;42.706;23.328;2022-10-26T13:11:05;0.10;;;0.10;;
10839;SDS011;5473;42.706;23.328;2022-10-26T13:13:40;0.10;;;0.10;;
10839;SDS011;5473;42.706;23.328;2022-10-26T13:16:09;0.17;;;0.17;;
10839;SDS011;5473;42.706;23.328;2022-10-26T13:18:40;0.10;;;0.10;;
10839;SDS011;5473;42.706;23.328;2022-10-26T13:21:08;0.10;;;0.10;;
10839;SDS011;5473;42.706;23.328;2022-10-26T13:23:38;0.10;;;0.10;;
10839;SDS011;5473;42.706;23.328;2022-10-26T13:26:09;0.10;;;0.10;;
10839;SDS011;5473;42.706;23.328;2022-10-26T13:28:42;0.10;;;0.10;;
10839;SDS011;5473;42.706;23.328;2022-10-26T13:31:12;0.10;;;0.10;;
10839;SDS011;5473;42.706;23.328;2022-10-26T13:34:11;0.10;;;0.10;;
10839;SDS011;5473;42.706;23.328;2022-10-26T13:36:43;0.20;;;0.20;;
10839;SDS011;5473;42.706;23.328;2022-10-26T13:39:16;0.10;;;0.10;;
10839;SDS011;5473;42.706;23.328;2022-10-26T13:41:47;0.10;;;0.10;;
10839;SDS011;5473;42.706;23.328;2022-10-26T13:44:19;0.10;;;0.10;;
10839;SDS011;5473;42.706;23.328;2022-10-26T13:46:51;0.20;;;0.20;;
10839;SDS011;5473;42.706;23.328;2022-10-26T13:49:23;0.10;;;0.10;;
10839;SDS011;5473;42.706;23.328;2022-10-26T13:51:55;0.10;;;0.10;;
10839;SDS011;5473;42.706;23.328;2022-10-26T13:54:28;0.10;;;0.10;;
10839;SDS011;5473;42.706;23.328;2022-10-26T13:57:11;0.10;;;0.10;;
10839;SDS011;5473;42.706;23.328;2022-10-26T13:59:43;0.10;;;0.10;;
10839;SDS011;5473;42.706;23.328;2022-10-26T14:02:16;0.10;;;0.10;;
10839;SDS011;5473;42.706;23.328;2022-10-26T14:04:45;0.10;;;0.10;;
10839;SDS011;5473;42.706;23.328;2022-10-26T14:07:17;0.10;;;0.10;;
10839;SDS011;5473;42.706;23.328;2022-10-26T14:09:51;0.10;;;0.10;;
10839;SDS011;5473;42.706;23.328;2022-10-26T14:12:20;0.10;;;0.10;;
10839;SDS011;5473;42.706;23.328;2022-10-26T14:14:48;0.10;;;0.10;;
10839;SDS011;5473;42.706;23.328;2022-10-26T14:17:17;0.10;;;0.10;;
10839;SDS011;5473;42.706;23.328;2022-10-26T14:19:46;0.20;;;0.20;;
10839;SDS011;5473;42.706;23.328;2022-10-26T14:22:20;0.20;;;0.20;;
10839;SDS011;5473;42.706;23.328;2022-10-26T14:24:52;0.20;;;0.20;;
10839;SDS011;5473;42.706;23.328;2022-10-26T14:27:21;0.20;;;0.20;;
10839;SDS011;5473;42.706;23.328;2022-10-26T14:29:50;0.20;;;0.20;;
10839;SDS011;5473;42.706;23.328;2022-10-26T14:32:19;0.20;;;0.20;;
10839;SDS011;5473;42.706;23.328;2022-10-26T14:34:46;0.20;;;0.20;;
10839;SDS011;5473;42.706;23.328;2022-10-26T14:37:14;0.20;;;0.20;;
10839;SDS011;5473;42.706;23.328;2022-10-26T14:39:49;0.10;;;0.10;;
10839;SDS011;5473;42.706;23.328;2022-10-26T14:42:19;0.20;;;0.20;;
10839;SDS011;5473;42.706;23.328;2022-10-26T14:44:53;0.20;;;0.20;;
10839;SDS011;5473;42.706;23.328;2022-10-26T14:47:22;0.13;;;0.13;;
10839;SDS011;5473;42.706;23.328;2022-10-26T14:49:51;0.20;;;0.20;;
10839;SDS011;5473;42.706;23.328;2022-10-26T14:52:20;0.13;;;0.13;;
10839;SDS011;5473;42.706;23.328;2022-10-26T14:54:55;0.20;;;0.20;;
10839;SDS011;5473;42.706;23.328;2022-10-26T14:57:29;0.20;;;0.20;;
10839;SDS011;5473;42.706;23.328;2022-10-26T15:00:01;0.10;;;0.10;;
10839;SDS011;5473;42.706;23.328;2022-10-26T15:02:36;0.10;;;0.10;;
10839;SDS011;5473;42.706;23.328;2022-10-26T15:05:14;0.20;;;0.20;;
10839;SDS011;5473;42.706;23.328;2022-10-26T15:07:44;0.20;;;0.20;;
10839;SDS011;5473;42.706;23.328;2022-10-26T15:13:17;0.20;;;0.20;;
10839;SDS011;5473;42.706;23.328;2022-10-26T15:15:46;0.20;;;0.20;;
10839;SDS011;5473;42.706;23.328;2022-10-26T15:18:16;0.20;;;0.20;;
10839;SDS011;5473;42.706;23.328;2022-10-26T15:20:47;0.20;;;0.20;;
10839;SDS011;5473;42.706;23.328;2022-10-26T15:23:15;0.20;;;0.20;;
10839;SDS011;5473;42.706;23.328;2022-10-26T15:25:48;0.20;;;0.20;;
10839;SDS011;5473;42.706;23.328;2022-10-26T15:28:24;0.20;;;0.20;;